createdAt,value
2019-03-04T00:00:51.300Z,992.93
2019-03-04T00:01:51.318Z,992.91
2019-03-04T00:02:51.283Z,992.82
2019-03-04T00:03:51.272Z,992.82
2019-03-04T00:04:51.290Z,992.81
2019-03-04T00:05:51.278Z,992.85
2019-03-04T00:06:51.245Z,992.77
2019-03-04T00:07:51.227Z,992.77
2019-03-04T00:08:51.216Z,992.77
2019-03-04T00:09:51.226Z,992.80
2019-03-04T00:10:51.200Z,992.77
2019-03-04T00:11:51.240Z,992.68
2019-03-04T00:12:51.171Z,992.66
2019-03-04T00:13:51.169Z,992.69
2019-03-04T00:14:51.157Z,992.72
2019-03-04T00:15:51.147Z,992.65
2019-03-04T00:16:51.179Z,992.70
2019-03-04T00:17:51.121Z,992.56
2019-03-04T00:18:51.110Z,992.62
2019-03-04T00:19:51.120Z,992.53
2019-03-04T00:20:51.095Z,992.78
2019-03-04T00:21:51.106Z,992.63
2019-03-04T00:22:51.076Z,992.43
2019-03-04T00:23:51.069Z,992.42
2019-03-04T00:24:51.053Z,992.42
2019-03-04T00:25:51.840Z,992.53
2019-03-04T00:26:51.047Z,992.38
2019-03-04T00:27:51.024Z,992.38
2019-03-04T00:28:51.013Z,992.27
2019-03-04T00:29:50.993Z,992.16
2019-03-04T00:30:51.005Z,992.27
2019-03-04T00:31:51.010Z,992.21
2019-03-04T00:32:50.972Z,992.35
2019-03-04T00:33:50.960Z,992.23
2019-03-04T00:34:50.949Z,992.24
2019-03-04T00:35:50.933Z,992.18
2019-03-04T00:36:50.950Z,992.21
2019-03-04T00:37:50.916Z,992.28
2019-03-04T00:38:50.896Z,992.18
2019-03-04T00:39:50.893Z,992.27
2019-03-04T00:40:50.875Z,992.25
2019-03-04T00:41:50.872Z,992.25
2019-03-04T00:42:50.888Z,992.15
2019-03-04T00:43:50.861Z,992.13
2019-03-04T00:44:50.833Z,992.12
2019-03-04T00:45:50.828Z,992.18
2019-03-04T00:46:50.815Z,992.40
2019-03-04T00:47:50.841Z,992.23
2019-03-04T00:48:50.809Z,992.22
2019-03-04T00:49:50.782Z,992.05
2019-03-04T00:50:50.768Z,992.08
2019-03-04T00:51:50.763Z,992.02
2019-03-04T00:52:50.747Z,992.05
2019-03-04T00:53:50.763Z,992.02
2019-03-04T00:54:50.732Z,992.09
2019-03-04T00:55:50.730Z,992.05
2019-03-04T00:56:50.718Z,991.92
2019-03-04T00:57:50.709Z,991.98
2019-03-04T00:58:50.708Z,992.00
2019-03-04T00:59:50.682Z,992.01
2019-03-04T01:00:50.667Z,991.94
2019-03-04T01:01:50.662Z,992.00
2019-03-04T01:02:50.640Z,991.99
2019-03-04T01:03:50.651Z,991.86
2019-03-04T01:04:50.619Z,991.89
2019-03-04T01:05:50.622Z,991.86
2019-03-04T01:06:50.605Z,991.72
2019-03-04T01:07:50.623Z,991.62
2019-03-04T01:08:50.591Z,991.66
2019-03-04T01:09:50.594Z,991.67
2019-03-04T01:10:50.557Z,991.67
2019-03-04T01:11:50.546Z,991.60
2019-03-04T01:12:50.559Z,991.53
2019-03-04T01:13:50.536Z,991.58
2019-03-04T01:14:50.548Z,991.56
2019-03-04T01:15:50.502Z,991.54
2019-03-04T01:16:50.489Z,991.50
2019-03-04T01:17:50.490Z,991.55
2019-03-04T01:18:50.525Z,991.46
2019-03-04T01:19:50.498Z,991.41
2019-03-04T01:20:50.463Z,991.44
2019-03-04T01:21:50.444Z,991.49
2019-03-04T01:22:50.429Z,991.38
2019-03-04T01:23:51.538Z,991.43
2019-03-04T01:24:50.441Z,991.40
2019-03-04T01:25:50.408Z,991.38
2019-03-04T01:26:50.397Z,991.40
2019-03-04T01:27:50.379Z,991.32
2019-03-04T01:28:50.369Z,991.41
2019-03-04T01:29:50.353Z,991.24
2019-03-04T01:30:50.366Z,991.14
2019-03-04T01:31:50.360Z,991.22
2019-03-04T01:32:50.359Z,991.13
2019-03-04T01:33:50.313Z,991.16
2019-03-04T01:34:50.319Z,991.11
2019-03-04T01:35:50.292Z,991.04
2019-03-04T01:36:50.299Z,990.98
2019-03-04T01:37:50.295Z,990.92
2019-03-04T01:38:50.264Z,990.88
2019-03-04T01:39:50.304Z,990.82
2019-03-04T01:40:50.245Z,990.78
2019-03-04T01:41:50.234Z,990.68
2019-03-04T01:42:50.226Z,990.60
2019-03-04T01:43:50.227Z,990.57
2019-03-04T01:44:50.195Z,990.44
2019-03-04T01:45:50.222Z,990.44
2019-03-04T01:46:50.220Z,990.54
2019-03-04T01:47:50.166Z,990.52
2019-03-04T01:48:50.174Z,990.57
2019-03-04T01:49:50.168Z,990.54
2019-03-04T01:50:50.140Z,990.47
2019-03-04T01:51:50.145Z,990.56
2019-03-04T01:52:50.118Z,990.66
2019-03-04T01:53:50.104Z,990.71
2019-03-04T01:54:51.085Z,990.67
2019-03-04T01:55:50.082Z,990.78
2019-03-04T01:56:50.085Z,990.81
2019-03-04T01:57:50.070Z,990.76
2019-03-04T01:58:50.059Z,990.70
2019-03-04T01:59:50.051Z,990.81
2019-03-04T02:00:50.042Z,990.92
2019-03-04T02:01:50.050Z,990.78
2019-03-04T02:02:50.011Z,990.90
2019-03-04T02:03:50.001Z,990.80
2019-03-04T02:04:49.998Z,990.89
2019-03-04T02:05:49.990Z,990.90
2019-03-04T02:06:49.994Z,990.92
2019-03-04T02:07:49.952Z,990.88
2019-03-04T02:08:49.941Z,990.91
2019-03-04T02:09:49.941Z,990.87
2019-03-04T02:10:49.923Z,990.85
2019-03-04T02:11:49.918Z,990.76
2019-03-04T02:12:49.933Z,990.70
2019-03-04T02:13:51.411Z,990.76
2019-03-04T02:14:49.877Z,990.76
2019-03-04T02:15:49.866Z,990.73
2019-03-04T02:16:49.859Z,990.74
2019-03-04T02:17:49.869Z,990.74
2019-03-04T02:18:49.839Z,990.73
2019-03-04T02:19:49.822Z,990.74
2019-03-04T02:20:49.813Z,990.78
2019-03-04T02:21:49.822Z,990.77
2019-03-04T02:22:49.827Z,990.76
2019-03-04T02:23:49.802Z,990.90
2019-03-04T02:24:49.775Z,990.90
2019-03-04T02:25:49.760Z,990.93
2019-03-04T02:26:49.748Z,991.00
2019-03-04T02:27:49.746Z,991.03
2019-03-04T02:28:49.747Z,991.10
2019-03-04T02:29:49.737Z,991.18
2019-03-04T02:30:49.750Z,991.21
2019-03-04T02:31:49.701Z,991.25
2019-03-04T02:32:49.692Z,991.24
2019-03-04T02:33:49.692Z,991.22
2019-03-04T02:34:49.669Z,991.27
2019-03-04T02:35:49.678Z,991.22
2019-03-04T02:36:49.650Z,991.13
2019-03-04T02:37:49.629Z,991.19
2019-03-04T02:38:49.653Z,990.98
2019-03-04T02:39:49.609Z,991.02
2019-03-04T02:40:49.622Z,991.06
2019-03-04T02:41:49.615Z,991.12
2019-03-04T02:42:49.598Z,991.05
2019-03-04T02:43:49.574Z,990.95
2019-03-04T02:44:49.597Z,991.02
2019-03-04T02:45:49.549Z,990.96
2019-03-04T02:46:49.540Z,990.98
2019-03-04T02:47:49.543Z,990.96
2019-03-04T02:48:49.514Z,990.88
2019-03-04T02:49:49.516Z,990.85
2019-03-04T02:50:49.542Z,990.82
2019-03-04T02:51:49.494Z,990.74
2019-03-04T02:52:49.484Z,990.76
2019-03-04T02:53:49.491Z,990.69
2019-03-04T02:54:49.455Z,990.76
2019-03-04T02:55:49.469Z,990.79
2019-03-04T02:56:49.446Z,990.63
2019-03-04T02:57:49.419Z,990.66
2019-03-04T02:58:49.414Z,990.58
2019-03-04T02:59:49.396Z,990.56
2019-03-04T03:00:49.433Z,990.53
2019-03-04T03:01:49.386Z,990.56
2019-03-04T03:02:49.383Z,990.46
2019-03-04T03:03:49.367Z,990.40
2019-03-04T03:04:49.366Z,990.41
2019-03-04T03:05:49.335Z,990.36
2019-03-04T03:06:49.338Z,990.34
2019-03-04T03:07:49.322Z,990.22
2019-03-04T03:08:49.321Z,990.22
2019-03-04T03:09:49.299Z,990.23
2019-03-04T03:10:49.303Z,990.13
2019-03-04T03:11:49.266Z,990.00
2019-03-04T03:12:49.260Z,990.01
2019-03-04T03:13:49.260Z,990.03
2019-03-04T03:14:49.248Z,989.99
2019-03-04T03:15:49.258Z,989.93
2019-03-04T03:16:49.271Z,989.84
2019-03-04T03:17:49.203Z,989.97
2019-03-04T03:18:49.191Z,989.91
2019-03-04T03:19:49.182Z,990.03
2019-03-04T03:20:49.229Z,989.93
2019-03-04T03:21:49.190Z,989.97
2019-03-04T03:22:49.175Z,989.82
2019-03-04T03:23:49.141Z,989.79
2019-03-04T03:24:49.131Z,989.87
2019-03-04T03:25:49.134Z,989.75
2019-03-04T03:26:49.133Z,989.74
2019-03-04T03:27:49.111Z,989.73
2019-03-04T03:28:49.108Z,989.69
2019-03-04T03:29:51.862Z,989.63
2019-03-04T03:30:49.067Z,989.75
2019-03-04T03:31:49.080Z,989.60
2019-03-04T03:32:49.051Z,989.55
2019-03-04T03:33:49.052Z,989.57
2019-03-04T03:34:49.081Z,989.43
2019-03-04T03:35:49.020Z,989.39
2019-03-04T03:36:49.036Z,989.37
2019-03-04T03:37:49.003Z,989.38
2019-03-04T03:38:48.981Z,989.36
2019-03-04T03:39:48.983Z,989.33
2019-03-04T03:40:48.965Z,989.27
2019-03-04T03:41:48.981Z,989.38
2019-03-04T03:42:48.944Z,989.30
2019-03-04T03:43:48.950Z,989.31
2019-03-04T03:44:48.920Z,989.29
2019-03-04T03:45:48.916Z,989.41
2019-03-04T03:46:48.927Z,989.33
2019-03-04T03:47:48.891Z,989.31
2019-03-04T03:48:48.885Z,989.22
2019-03-04T03:49:48.870Z,989.27
2019-03-04T03:50:48.873Z,989.17
2019-03-04T03:51:48.848Z,989.17
2019-03-04T03:52:48.852Z,989.17
2019-03-04T03:53:48.859Z,989.14
2019-03-04T03:54:48.822Z,989.19
2019-03-04T03:55:48.804Z,989.19
2019-03-04T03:56:48.786Z,989.30
2019-03-04T03:57:48.793Z,989.31
2019-03-04T03:58:48.771Z,989.29
2019-03-04T03:59:48.821Z,989.31
2019-03-04T04:00:48.758Z,989.31
2019-03-04T04:01:48.739Z,989.30
2019-03-04T04:02:48.728Z,989.33
2019-03-04T04:03:48.716Z,989.33
2019-03-04T04:04:48.710Z,989.45
2019-03-04T04:05:48.717Z,989.34
2019-03-04T04:06:48.697Z,989.47
2019-03-04T04:07:48.703Z,989.34
2019-03-04T04:08:48.667Z,989.30
2019-03-04T04:09:48.676Z,989.30
2019-03-04T04:10:48.636Z,989.33
2019-03-04T04:11:48.648Z,989.22
2019-03-04T04:12:48.630Z,989.19
2019-03-04T04:13:48.607Z,989.09
2019-03-04T04:14:48.626Z,989.11
2019-03-04T04:15:48.593Z,989.06
2019-03-04T04:16:48.608Z,989.01
2019-03-04T04:17:48.573Z,988.98
2019-03-04T04:18:48.561Z,989.02
2019-03-04T04:19:48.546Z,988.97
2019-03-04T04:20:48.557Z,988.98
2019-03-04T04:21:48.524Z,988.90
2019-03-04T04:22:48.519Z,988.91
2019-03-04T04:23:48.505Z,988.87
2019-03-04T04:24:48.504Z,988.83
2019-03-04T04:25:48.508Z,988.82
2019-03-04T04:26:48.465Z,988.71
2019-03-04T04:27:48.462Z,988.77
2019-03-04T04:28:48.453Z,988.68
2019-03-04T04:29:48.439Z,988.66
2019-03-04T04:30:48.448Z,988.61
2019-03-04T04:31:48.412Z,988.62
2019-03-04T04:32:49.070Z,988.62
2019-03-04T04:33:48.401Z,988.53
2019-03-04T04:34:48.388Z,988.54
2019-03-04T04:35:48.398Z,988.51
2019-03-04T04:36:48.393Z,988.56
2019-03-04T04:37:48.352Z,988.48
2019-03-04T04:38:48.341Z,988.47
2019-03-04T04:39:48.335Z,988.49
2019-03-04T04:40:48.321Z,988.45
2019-03-04T04:41:48.317Z,988.46
2019-03-04T04:42:48.324Z,988.44
2019-03-04T04:43:48.288Z,988.46
2019-03-04T04:44:48.282Z,988.44
2019-03-04T04:45:48.276Z,988.39
2019-03-04T04:46:48.263Z,988.41
2019-03-04T04:47:48.275Z,988.36
2019-03-04T04:48:48.245Z,988.41
2019-03-04T04:49:48.239Z,988.30
2019-03-04T04:50:49.204Z,988.27
2019-03-04T04:51:48.202Z,988.21
2019-03-04T04:52:48.213Z,988.25
2019-03-04T04:53:48.192Z,988.14
2019-03-04T04:54:48.197Z,988.19
2019-03-04T04:55:48.166Z,988.21
2019-03-04T04:56:48.165Z,988.15
2019-03-04T04:57:48.137Z,988.15
2019-03-04T04:58:48.149Z,988.07
2019-03-04T04:59:48.142Z,988.09
2019-03-04T05:00:48.110Z,988.11
2019-03-04T05:01:48.099Z,988.06
2019-03-04T05:02:48.088Z,988.16
2019-03-04T05:03:48.100Z,988.21
2019-03-04T05:04:48.083Z,988.14
2019-03-04T05:05:48.057Z,988.04
2019-03-04T05:06:48.050Z,988.09
2019-03-04T05:07:48.046Z,988.13
2019-03-04T05:08:48.050Z,988.12
2019-03-04T05:09:48.009Z,988.13
2019-03-04T05:10:47.998Z,988.06
2019-03-04T05:11:47.985Z,988.10
2019-03-04T05:12:47.981Z,988.11
2019-03-04T05:13:48.002Z,988.13
2019-03-04T05:14:47.965Z,988.13
2019-03-04T05:15:47.953Z,988.06
2019-03-04T05:16:47.932Z,988.13
2019-03-04T05:17:47.928Z,988.06
2019-03-04T05:18:47.929Z,988.04
2019-03-04T05:19:47.936Z,988.09
2019-03-04T05:20:47.897Z,988.01
2019-03-04T05:21:47.882Z,988.04
2019-03-04T05:22:47.884Z,988.00
2019-03-04T05:23:47.864Z,987.92
2019-03-04T05:24:47.867Z,987.88
2019-03-04T05:25:47.845Z,987.78
2019-03-04T05:26:47.836Z,987.82
2019-03-04T05:27:47.821Z,987.90
2019-03-04T05:28:47.813Z,987.91
2019-03-04T05:29:48.089Z,987.94
2019-03-04T05:30:47.791Z,987.85
2019-03-04T05:31:47.837Z,987.75
2019-03-04T05:32:47.770Z,987.67
2019-03-04T05:33:47.752Z,987.69
2019-03-04T05:34:47.760Z,987.72
2019-03-04T05:35:47.767Z,987.66
2019-03-04T05:36:47.742Z,987.69
2019-03-04T05:37:47.716Z,987.68
2019-03-04T05:38:47.705Z,987.68
2019-03-04T05:39:47.700Z,987.65
2019-03-04T05:40:47.705Z,987.62
2019-03-04T05:41:47.688Z,987.65
2019-03-04T05:42:47.661Z,987.70
2019-03-04T05:43:47.658Z,987.50
2019-03-04T05:44:47.640Z,987.63
2019-03-04T05:45:47.827Z,987.59
2019-03-04T05:46:47.726Z,987.62
2019-03-04T05:47:56.094Z,987.61
2019-03-04T05:48:47.614Z,987.55
2019-03-04T05:49:47.592Z,987.62
2019-03-04T05:50:47.579Z,987.53
2019-03-04T05:51:47.577Z,987.63
2019-03-04T05:52:47.549Z,987.44
2019-03-04T05:53:47.543Z,987.51
2019-03-04T05:54:47.549Z,987.48
2019-03-04T05:55:47.527Z,987.41
2019-03-04T05:56:47.529Z,987.54
2019-03-04T05:57:47.506Z,987.53
2019-03-04T05:58:48.500Z,987.37
2019-03-04T05:59:47.486Z,987.34
2019-03-04T06:00:56.631Z,987.39
2019-03-04T06:01:47.476Z,987.37
2019-03-04T06:02:47.442Z,987.45
2019-03-04T06:03:47.429Z,987.45
2019-03-04T06:04:47.427Z,987.47
2019-03-04T06:05:47.416Z,987.39
2019-03-04T06:06:47.433Z,987.28
2019-03-04T06:07:47.447Z,987.31
2019-03-04T06:08:47.383Z,987.31
2019-03-04T06:09:47.365Z,987.37
2019-03-04T06:10:47.358Z,987.25
2019-03-04T06:11:47.362Z,987.34
2019-03-04T06:12:47.354Z,987.33
2019-03-04T06:13:47.375Z,987.24
2019-03-04T06:14:47.320Z,987.14
2019-03-04T06:15:47.305Z,987.18
2019-03-04T06:16:47.722Z,987.20
2019-03-04T06:17:47.315Z,987.27
2019-03-04T06:18:47.280Z,987.23
2019-03-04T06:19:47.268Z,987.12
2019-03-04T06:20:47.257Z,987.11
2019-03-04T06:21:47.239Z,986.96
2019-03-04T06:22:47.254Z,987.05
2019-03-04T06:23:47.226Z,986.90
2019-03-04T06:24:47.215Z,986.81
2019-03-04T06:25:47.226Z,986.89
2019-03-04T06:26:47.196Z,986.82
2019-03-04T06:27:47.211Z,986.76
2019-03-04T06:28:47.173Z,986.77
2019-03-04T06:29:47.172Z,986.82
2019-03-04T06:30:49.236Z,986.71
2019-03-04T06:31:47.167Z,986.79
2019-03-04T06:32:47.133Z,986.89
2019-03-04T06:33:47.137Z,986.85
2019-03-04T06:34:47.110Z,986.91
2019-03-04T06:35:47.094Z,986.93
2019-03-04T06:36:47.086Z,986.87
2019-03-04T06:37:47.653Z,986.80
2019-03-04T06:38:47.106Z,986.75
2019-03-04T06:39:47.055Z,986.74
2019-03-04T06:40:47.053Z,986.71
2019-03-04T06:41:47.037Z,986.73
2019-03-04T06:42:47.018Z,986.68
2019-03-04T06:43:47.028Z,986.64
2019-03-04T06:44:46.996Z,986.68
2019-03-04T06:45:46.989Z,986.68
2019-03-04T06:46:46.981Z,986.63
2019-03-04T06:47:46.972Z,986.61
2019-03-04T06:48:46.988Z,986.64
2019-03-04T06:49:46.945Z,986.56
2019-03-04T06:50:46.942Z,986.65
2019-03-04T06:51:46.969Z,986.63
2019-03-04T06:52:46.918Z,986.56
2019-03-04T06:53:46.899Z,986.63
2019-03-04T06:54:46.921Z,986.56
2019-03-04T06:55:46.877Z,986.60
2019-03-04T06:56:46.863Z,986.56
2019-03-04T06:57:46.861Z,986.55
2019-03-04T06:58:46.853Z,986.51
2019-03-04T06:59:46.873Z,986.51
2019-03-04T07:00:46.867Z,986.48
2019-03-04T07:01:46.813Z,986.34
2019-03-04T07:02:46.804Z,986.30
2019-03-04T07:03:46.812Z,986.28
2019-03-04T07:04:46.817Z,986.22
2019-03-04T07:05:46.788Z,986.25
2019-03-04T07:06:46.797Z,986.21
2019-03-04T07:07:46.769Z,986.10
2019-03-04T07:08:46.776Z,986.06
2019-03-04T07:09:46.802Z,985.96
2019-03-04T07:10:46.744Z,986.09
2019-03-04T07:11:46.722Z,986.07
2019-03-04T07:12:46.712Z,986.07
2019-03-04T07:13:46.693Z,986.00
2019-03-04T07:14:46.710Z,986.05
2019-03-04T07:15:46.701Z,985.98
2019-03-04T07:16:46.694Z,985.97
2019-03-04T07:17:46.663Z,986.03
2019-03-04T07:18:46.638Z,985.99
2019-03-04T07:19:46.623Z,985.98
2019-03-04T07:20:46.779Z,986.00
2019-03-04T07:21:46.633Z,985.85
2019-03-04T07:22:48.442Z,986.01
2019-03-04T07:23:46.608Z,985.96
2019-03-04T07:24:46.573Z,985.88
2019-03-04T07:25:47.185Z,985.90
2019-03-04T07:26:46.576Z,985.97
2019-03-04T07:27:46.541Z,985.85
2019-03-04T07:28:46.530Z,985.81
2019-03-04T07:29:46.565Z,985.93
2019-03-04T07:30:46.515Z,985.80
2019-03-04T07:31:46.558Z,985.81
2019-03-04T07:32:46.491Z,985.64
2019-03-04T07:33:46.477Z,985.66
2019-03-04T07:34:46.475Z,985.73
2019-03-04T07:35:46.477Z,985.59
2019-03-04T07:36:46.489Z,985.61
2019-03-04T07:37:46.436Z,985.62
2019-03-04T07:38:46.426Z,985.56
2019-03-04T07:39:46.427Z,985.47
2019-03-04T07:40:46.409Z,985.47
2019-03-04T07:41:46.402Z,985.39
2019-03-04T07:42:46.694Z,985.40
2019-03-04T07:43:46.385Z,985.32
2019-03-04T07:44:46.362Z,985.26
2019-03-04T07:45:46.353Z,985.28
2019-03-04T07:46:46.337Z,985.25
2019-03-04T07:47:46.342Z,985.21
2019-03-04T07:48:46.323Z,985.24
2019-03-04T07:49:46.311Z,985.18
2019-03-04T07:50:46.304Z,985.24
2019-03-04T07:51:46.291Z,985.14
2019-03-04T07:52:46.297Z,985.10
2019-03-04T07:53:46.970Z,985.08
2019-03-04T07:54:46.260Z,985.07
2019-03-04T07:55:46.273Z,985.00
2019-03-04T07:56:46.281Z,984.97
2019-03-04T07:57:46.257Z,984.90
2019-03-04T07:58:46.217Z,984.85
2019-03-04T07:59:46.199Z,984.87
2019-03-04T08:00:46.190Z,984.81
2019-03-04T08:01:46.186Z,984.82
2019-03-04T08:02:46.179Z,984.75
2019-03-04T08:03:46.191Z,984.71
2019-03-04T08:04:46.168Z,984.66
2019-03-04T08:05:46.154Z,984.71
2019-03-04T08:06:46.223Z,984.82
2019-03-04T08:07:46.127Z,984.93
2019-03-04T08:08:46.147Z,985.03
2019-03-04T08:09:46.093Z,985.03
2019-03-04T08:10:46.085Z,984.96
2019-03-04T08:11:46.070Z,984.83
2019-03-04T08:12:46.066Z,984.72
2019-03-04T08:13:46.065Z,984.59
2019-03-04T08:14:46.061Z,984.60
2019-03-04T08:15:46.033Z,984.69
2019-03-04T08:16:46.027Z,984.75
2019-03-04T08:17:46.004Z,984.69
2019-03-04T08:18:46.005Z,984.62
2019-03-04T08:19:46.008Z,984.57
2019-03-04T08:20:45.977Z,984.57
2019-03-04T08:21:45.971Z,984.54
2019-03-04T08:22:45.958Z,984.38
2019-03-04T08:23:46.665Z,984.26
2019-03-04T08:24:45.959Z,984.24
2019-03-04T08:25:45.931Z,984.08
2019-03-04T08:26:45.922Z,984.15
2019-03-04T08:27:46.663Z,984.11
2019-03-04T08:28:45.891Z,983.99
2019-03-04T08:29:45.898Z,984.00
2019-03-04T08:30:45.865Z,983.90
2019-03-04T08:31:45.864Z,983.81
2019-03-04T08:32:45.838Z,983.67
2019-03-04T08:33:45.839Z,983.77
2019-03-04T08:34:45.847Z,983.83
2019-03-04T08:35:45.818Z,983.91
2019-03-04T08:36:45.811Z,983.85
2019-03-04T08:37:45.797Z,983.75
2019-03-04T08:38:45.782Z,983.71
2019-03-04T08:39:45.796Z,983.72
2019-03-04T08:40:45.767Z,983.86
2019-03-04T08:41:45.745Z,983.85
2019-03-04T08:42:45.791Z,983.72
2019-03-04T08:43:45.754Z,983.59
2019-03-04T08:44:46.223Z,983.55
2019-03-04T08:45:46.687Z,983.55
2019-03-04T08:46:45.711Z,983.59
2019-03-04T08:47:45.698Z,983.59
2019-03-04T08:48:45.687Z,983.55
2019-03-04T08:49:45.692Z,983.54
2019-03-04T08:50:45.660Z,983.32
2019-03-04T08:51:45.648Z,983.17
2019-03-04T08:52:45.631Z,983.03
2019-03-04T08:53:45.624Z,982.89
2019-03-04T08:54:45.614Z,982.87
2019-03-04T08:55:45.758Z,983.10
2019-03-04T08:56:45.586Z,982.83
2019-03-04T08:57:45.585Z,983.15
2019-03-04T08:58:45.594Z,983.37
2019-03-04T08:59:45.561Z,983.49
2019-03-04T09:00:45.578Z,983.54
2019-03-04T09:01:45.532Z,983.44
2019-03-04T09:02:45.525Z,983.46
2019-03-04T09:03:45.522Z,983.27
2019-03-04T09:04:45.545Z,983.32
2019-03-04T09:05:45.529Z,983.26
2019-03-04T09:06:45.509Z,983.19
2019-03-04T09:07:45.476Z,983.07
2019-03-04T09:08:45.467Z,982.95
2019-03-04T09:09:45.446Z,983.00
2019-03-04T09:10:45.440Z,983.00
2019-03-04T09:11:45.462Z,982.99
2019-03-04T09:12:45.429Z,983.00
2019-03-04T09:13:45.414Z,983.03
2019-03-04T09:14:45.397Z,982.94
2019-03-04T09:15:45.386Z,983.08
2019-03-04T09:16:45.376Z,982.95
2019-03-04T09:17:45.397Z,982.90
2019-03-04T09:18:45.373Z,982.84
2019-03-04T09:19:45.346Z,982.86
2019-03-04T09:20:45.335Z,982.92
2019-03-04T09:21:45.331Z,982.85
2019-03-04T09:22:45.332Z,982.76
2019-03-04T09:23:45.308Z,982.70
2019-03-04T09:24:45.291Z,982.64
2019-03-04T09:25:45.289Z,982.59
2019-03-04T09:26:45.278Z,982.55
2019-03-04T09:27:45.309Z,982.48
2019-03-04T09:28:45.245Z,982.51
2019-03-04T09:29:46.770Z,982.64
2019-03-04T09:30:45.229Z,982.69
2019-03-04T09:31:45.223Z,982.79
2019-03-04T09:32:45.242Z,982.90
2019-03-04T09:33:45.204Z,982.84
2019-03-04T09:34:45.177Z,982.79
2019-03-04T09:35:45.170Z,982.77
2019-03-04T09:36:45.157Z,982.71
2019-03-04T09:37:45.154Z,982.77
2019-03-04T09:38:45.169Z,982.58
2019-03-04T09:39:45.152Z,982.57
2019-03-04T09:40:45.125Z,982.70
2019-03-04T09:41:45.107Z,982.54
2019-03-04T09:42:45.094Z,982.55
2019-03-04T09:43:45.113Z,982.55
2019-03-04T09:44:45.100Z,982.76
2019-03-04T09:45:45.640Z,982.74
2019-03-04T09:46:45.053Z,982.80
2019-03-04T09:47:45.042Z,982.76
2019-03-04T09:48:45.054Z,982.77
2019-03-04T09:49:45.068Z,982.69
2019-03-04T09:50:45.015Z,982.58
2019-03-04T09:51:45.012Z,982.59
2019-03-04T09:52:44.997Z,982.48
2019-03-04T09:53:44.977Z,982.58
2019-03-04T09:54:44.968Z,982.58
2019-03-04T09:55:44.974Z,982.63
2019-03-04T09:56:44.943Z,982.64
2019-03-04T09:57:44.942Z,982.67
2019-03-04T09:58:44.929Z,982.56
2019-03-04T09:59:46.988Z,982.63
2019-03-04T10:00:44.900Z,982.65
2019-03-04T10:01:44.896Z,982.55
2019-03-04T10:02:44.886Z,982.55
2019-03-04T10:03:44.876Z,982.58
2019-03-04T10:04:44.895Z,982.59
2019-03-04T10:05:44.847Z,982.47
2019-03-04T10:06:44.839Z,982.52
2019-03-04T10:07:44.831Z,982.41
2019-03-04T10:08:44.816Z,982.48
2019-03-04T10:09:44.817Z,982.42
2019-03-04T10:10:44.824Z,982.39
2019-03-04T10:11:44.793Z,982.32
2019-03-04T10:12:44.781Z,982.28
2019-03-04T10:13:44.765Z,982.20
2019-03-04T10:14:44.750Z,982.23
2019-03-04T10:15:44.793Z,982.17
2019-03-04T10:16:44.751Z,982.07
2019-03-04T10:17:44.721Z,982.06
2019-03-04T10:18:44.708Z,981.96
2019-03-04T10:19:44.699Z,981.90
2019-03-04T10:20:44.727Z,981.96
2019-03-04T10:21:44.685Z,981.85
2019-03-04T10:22:44.673Z,981.87
2019-03-04T10:23:44.661Z,981.81
2019-03-04T10:24:44.653Z,981.76
2019-03-04T10:25:44.631Z,981.70
2019-03-04T10:26:44.641Z,981.60
2019-03-04T10:27:44.611Z,981.59
2019-03-04T10:28:44.601Z,981.54
2019-03-04T10:29:44.599Z,981.59
2019-03-04T10:30:44.606Z,981.62
2019-03-04T10:31:44.597Z,981.40
2019-03-04T10:32:44.560Z,981.76
2019-03-04T10:33:44.553Z,981.63
2019-03-04T10:34:44.543Z,981.62
2019-03-04T10:35:44.538Z,981.64
2019-03-04T10:36:44.546Z,981.11
2019-03-04T10:37:44.507Z,981.52
2019-03-04T10:38:44.490Z,981.45
2019-03-04T10:39:44.482Z,981.56
2019-03-04T10:40:44.475Z,981.27
2019-03-04T10:41:44.467Z,981.29
2019-03-04T10:42:44.476Z,981.56
2019-03-04T10:43:44.451Z,981.29
2019-03-04T10:44:44.445Z,981.47
2019-03-04T10:45:44.418Z,981.44
2019-03-04T10:46:45.406Z,981.30
2019-03-04T10:47:44.436Z,981.27
2019-03-04T10:48:44.406Z,981.12
2019-03-04T10:49:44.406Z,981.22
2019-03-04T10:50:44.363Z,981.02
2019-03-04T10:51:44.362Z,981.24
2019-03-04T10:52:44.350Z,981.16
2019-03-04T10:53:44.361Z,981.40
2019-03-04T10:54:44.328Z,981.04
2019-03-04T10:55:44.320Z,981.25
2019-03-04T10:56:44.309Z,981.28
2019-03-04T10:57:44.290Z,981.28
2019-03-04T10:58:44.314Z,981.38
2019-03-04T10:59:44.281Z,981.24
2019-03-04T11:00:44.265Z,981.41
2019-03-04T11:01:44.251Z,981.06
2019-03-04T11:02:44.241Z,981.28
2019-03-04T11:03:44.245Z,981.16
2019-03-04T11:04:44.216Z,981.08
2019-03-04T11:05:44.211Z,981.01
2019-03-04T11:06:44.206Z,981.38
2019-03-04T11:07:44.187Z,981.26
2019-03-04T11:08:44.207Z,981.33
2019-03-04T11:09:44.161Z,981.26
2019-03-04T11:10:44.157Z,981.48
2019-03-04T11:11:44.140Z,981.22
2019-03-04T11:12:44.132Z,981.45
2019-03-04T11:13:44.156Z,981.29
2019-03-04T11:14:44.115Z,981.66
2019-03-04T11:15:44.116Z,981.46
2019-03-04T11:16:44.091Z,981.51
2019-03-04T11:17:44.079Z,981.69
2019-03-04T11:18:44.086Z,981.58
2019-03-04T11:19:44.084Z,981.48
2019-03-04T11:20:44.051Z,981.61
2019-03-04T11:21:44.033Z,981.62
2019-03-04T11:22:44.028Z,981.43
2019-03-04T11:23:44.011Z,981.45
2019-03-04T11:24:44.019Z,981.72
2019-03-04T11:25:44.005Z,981.51
2019-03-04T11:26:43.992Z,981.54
2019-03-04T11:27:43.979Z,981.92
2019-03-04T11:28:43.964Z,981.78
2019-03-04T11:29:51.534Z,982.18
2019-03-04T11:30:43.936Z,982.56
2019-03-04T11:31:43.932Z,982.73
2019-03-04T11:32:43.923Z,982.68
2019-03-04T11:33:43.923Z,982.94
2019-03-04T11:34:43.926Z,983.05
2019-03-04T11:35:43.895Z,983.09
2019-03-04T11:36:43.904Z,983.08
2019-03-04T11:37:43.869Z,983.09
2019-03-04T11:38:43.862Z,983.11
2019-03-04T11:39:43.841Z,983.08
2019-03-04T11:40:43.856Z,983.11
2019-03-04T11:41:43.818Z,983.26
2019-03-04T11:42:43.815Z,983.29
2019-03-04T11:43:43.802Z,983.05
2019-03-04T11:44:43.796Z,983.47
2019-03-04T11:45:43.798Z,983.38
2019-03-04T11:46:43.769Z,983.41
2019-03-04T11:47:43.758Z,983.53
2019-03-04T11:48:43.741Z,983.38
2019-03-04T11:49:43.737Z,983.24
2019-03-04T11:50:43.747Z,983.37
2019-03-04T11:51:43.710Z,983.19
2019-03-04T11:52:43.698Z,983.25
2019-03-04T11:53:43.688Z,983.40
2019-03-04T11:54:43.678Z,983.41
2019-03-04T11:55:43.689Z,983.69
2019-03-04T11:56:43.668Z,983.04
2019-03-04T11:57:43.651Z,982.99
2019-03-04T11:58:43.642Z,983.03
2019-03-04T11:59:43.625Z,982.96
2019-03-04T12:00:43.640Z,983.07
2019-03-04T12:01:43.623Z,983.05
2019-03-04T12:02:43.595Z,983.18
2019-03-04T12:03:43.595Z,983.07
2019-03-04T12:04:43.593Z,982.97
2019-03-04T12:05:43.561Z,982.85
2019-03-04T12:06:43.584Z,982.82
2019-03-04T12:07:43.549Z,982.87
2019-03-04T12:08:43.539Z,982.62
2019-03-04T12:09:43.526Z,982.66
2019-03-04T12:10:43.515Z,982.75
2019-03-04T12:11:43.496Z,982.63
2019-03-04T12:12:43.502Z,982.64
2019-03-04T12:13:43.477Z,982.72
2019-03-04T12:14:43.467Z,982.65
2019-03-04T12:15:43.494Z,982.49
2019-03-04T12:16:43.483Z,982.55
2019-03-04T12:17:44.438Z,982.53
2019-03-04T12:18:43.459Z,982.69
2019-03-04T12:19:43.414Z,982.65
2019-03-04T12:20:43.404Z,982.79
2019-03-04T12:21:43.418Z,982.81
2019-03-04T12:22:43.388Z,982.74
2019-03-04T12:23:43.373Z,982.70
2019-03-04T12:24:43.360Z,982.53
2019-03-04T12:25:43.347Z,982.45
2019-03-04T12:26:43.369Z,982.52
2019-03-04T12:27:43.337Z,982.53
2019-03-04T12:28:43.321Z,982.46